This is the latest recevied weather packets stored in our database for station/object N4LLZ-13. If no packets are shown the sender has not sent any weather packets the latest 10 day(s).
| Time | Temp. | Humidity | Pressure | Rain* | Wind** | Luminosity | Snow |
|---|---|---|---|---|---|---|---|
| 1787946704 | 31.11° C | 61% | 1015.9 hPa | 0 mm | - | - | - |
| 1787946403 | 31.11° C | 59% | 1015.9 hPa | 0 mm | - | - | - |
| 1787946102 | 31.67° C | 58% | 1015.9 hPa | 0 mm | - | - | - |
| 1787945801 | 32.22° C | 58% | 1016 hPa | 0 mm | - | - | - |
| 1787945500 | 32.22° C | 58% | 1016.1 hPa | 0 mm | - | - | - |
| 1787945199 | 32.22° C | 59% | 1016.1 hPa | 0 mm | - | - | - |
| 1787944898 | 32.22° C | 58% | 1016.1 hPa | 0 mm | - | - | - |
| 1787944598 | 32.22° C | 59% | 1016.2 hPa | 0 mm | - | - | - |
| 1787944297 | 31.67° C | 60% | 1016.2 hPa | 0 mm | - | - | - |
| 1787943996 | 31.67° C | 60% | 1016.3 hPa | 0 mm | - | - | - |
| 1787943695 | 31.67° C | 60% | 1016.4 hPa | 0 mm | - | - | - |
| 1787943394 | 31.11° C | 63% | 1016.5 hPa | 0 mm | - | - | - |
| 1787943093 | 31.67° C | 61% | 1016.5 hPa | 0 mm | - | - | - |
| 1787942792 | 31.67° C | 62% | 1016.5 hPa | 0 mm | - | - | - |
| 1787942491 | 31.11° C | 64% | 1016.6 hPa | 0 mm | - | - | - |
| 1787942191 | 31.11° C | 63% | 1016.7 hPa | 0 mm | - | - | - |
| 1787941890 | 30.56° C | 67% | 1016.7 hPa | 0 mm | - | - | - |
| 1787941589 | 30° C | 65% | 1016.7 hPa | 0 mm | - | - | - |
| 1787941288 | 30° C | 68% | 1016.8 hPa | 0 mm | - | - | - |
| 1787940988 | 30° C | 69% | 1016.8 hPa | 0 mm | - | - | - |
| 1787940687 | 30° C | 69% | 1016.8 hPa | 0 mm | - | - | - |
| 1787940386 | 30° C | 71% | 1016.9 hPa | 0 mm | - | - | - |
| 1787940085 | 30.56° C | 69% | 1016.9 hPa | 0 mm | - | - | - |
| 1787939784 | 30.56° C | 68% | 1017 hPa | 0 mm | - | - | - |
| 1787939484 | 30° C | 70% | 1017 hPa | 0 mm | - | - | - |
* Rain latest hour (hover to see other rain measurements)
** Current wind speed in m/s (hover to see current wind gust speed)